Time;durP1;ratioP1;P1;durP2;ratioP2;P2;SDS_P1;SDS_P2;PMS_P1;PMS_P2;Temp;Humidity;BMP_temperature;BMP_pressure;BME280_temperature;BME280_humidity;BME280_pressure;Samples;Min_cycle;Max_cycle;Signal;HPM_P1;HPM_P2
2022/07/30 00:02:17;;;;;;;8.85;4.72;;;14.20;99.90;;;;;;5073296;28;20040;-55
2022/07/30 00:04:44;;;;;;;8.55;5.18;;;14.20;99.90;;;;;;5072538;28;20075;-55
2022/07/30 00:07:12;;;;;;;9.30;6.50;;;14.30;99.90;;;;;;5072269;28;20561;-55
2022/07/30 00:09:39;;;;;;;10.98;5.30;;;14.30;99.90;;;;;;5054101;28;20063;-56
2022/07/30 00:12:06;;;;;;;10.63;5.30;;;14.30;99.90;;;;;;5072439;28;20914;-55
2022/07/30 00:14:34;;;;;;;6.68;5.30;;;14.30;99.90;;;;;;5057318;28;20478;-55
2022/07/30 00:17:02;;;;;;;7.63;5.75;;;14.30;99.90;;;;;;5052708;28;20048;-53
2022/07/30 00:19:29;;;;;;;10.55;5.28;;;14.40;99.90;;;;;;5053221;28;20041;-56
2022/07/30 00:21:57;;;;;;;8.60;5.65;;;14.40;99.90;;;;;;5052438;28;20062;-56
2022/07/30 00:24:24;;;;;;;;;;;14.40;99.90;;;;;;5051573;28;20117;-55
2022/07/30 00:26:50;;;;;;;6.57;5.85;;;14.40;99.90;;;;;;5051480;28;20573;-56
2022/07/30 00:29:17;;;;;;;11.95;5.47;;;14.50;99.90;;;;;;5052381;28;20040;-54
2022/07/30 00:31:44;;;;;;;7.88;5.93;;;14.40;99.90;;;;;;5052837;28;20062;-55
2022/07/30 00:34:14;;;;;;;8.63;5.63;;;14.50;99.90;;;;;;5049521;28;20110;-54
2022/07/30 00:36:41;;;;;;;8.93;6.13;;;14.50;99.90;;;;;;5052985;28;20066;-56
2022/07/30 00:39:07;;;;;;;7.13;5.50;;;14.50;99.90;;;;;;5052333;28;20037;-55
2022/07/30 00:41:52;;;;;;;10.65;5.85;;;14.50;99.90;;;;;;5052244;28;20064;-55
2022/07/30 00:44:19;;;;;;;5.70;5.10;;;14.50;99.90;;;;;;5061903;28;20097;-54
2022/07/30 00:46:46;;;;;;;6.80;6.15;;;14.50;99.90;;;;;;5071448;28;20048;-58
2022/07/30 00:49:12;;;;;;;;;;;14.50;99.90;;;;;;5073132;28;20051;-55
2022/07/30 00:51:39;;;;;;;7.18;5.22;;;14.60;99.90;;;;;;5072546;28;19932;-57
2022/07/30 00:54:06;;;;;;;;;;;14.60;99.90;;;;;;5073463;28;20058;-55
2022/07/30 00:56:33;;;;;;;6.90;5.28;;;14.60;99.90;;;;;;5071813;28;19955;-55
2022/07/30 00:59:00;;;;;;;5.10;4.63;;;14.60;99.90;;;;;;5072633;28;20677;-56
2022/07/30 01:01:27;;;;;;;8.95;4.80;;;14.60;99.90;;;;;;5049615;28;20596;-56
2022/07/30 01:03:53;;;;;;;;;;;14.60;99.90;;;;;;5052423;28;20090;-55
2022/07/30 01:06:20;;;;;;;6.05;5.45;;;14.60;99.90;;;;;;5052764;28;19924;-57
2022/07/30 01:08:47;;;;;;;7.22;5.68;;;14.60;99.90;;;;;;5051993;28;20801;-55
2022/07/30 01:11:15;;;;;;;5.40;4.97;;;14.60;99.90;;;;;;5067730;28;20569;-56
2022/07/30 01:13:43;;;;;;;7.60;5.05;;;14.70;99.90;;;;;;5050911;28;20053;-55
2022/07/30 01:16:10;;;;;;;6.72;5.72;;;14.70;99.90;;;;;;5052090;28;20053;-55
2022/07/30 01:21:33;;;;;;;5.57;5.07;;;14.70;99.90;;;;;;5052186;28;20044;-56
2022/07/30 01:24:36;;;;;;;9.43;5.82;;;14.70;99.90;;;;;;5054395;28;20049;-55
2022/07/30 01:27:04;;;;;;;8.35;5.80;;;14.70;99.90;;;;;;5042485;28;20064;-55
2022/07/30 01:29:33;;;;;;;6.07;5.47;;;14.70;99.90;;;;;;5055577;28;20089;-54
2022/07/30 01:32:03;;;;;;;7.13;5.15;;;14.70;99.90;;;;;;5055351;28;20129;-54
2022/07/30 01:34:33;;;;;;;7.50;5.15;;;14.70;99.90;;;;;;5061725;28;20733;-55
2022/07/30 01:37:02;;;;;;;8.23;5.50;;;14.70;99.90;;;;;;5076303;28;20538;-55
2022/07/30 01:39:31;;;;;;;8.38;5.15;;;14.80;99.90;;;;;;5076310;28;20047;-57
2022/07/30 01:41:59;;;;;;;8.88;5.95;;;14.80;99.90;;;;;;5072796;28;20040;-55
2022/07/30 01:44:27;;;;;;;7.45;5.47;;;14.80;99.90;;;;;;5057185;28;20122;-55
2022/07/30 01:46:55;;;;;;;6.10;5.10;;;14.80;99.90;;;;;;5073660;28;20055;-55
2022/07/30 01:49:24;;;;;;;6.13;5.53;;;14.80;99.90;;;;;;5057776;28;20082;-57
2022/07/30 01:51:52;;;;;;;15.07;5.82;;;14.80;99.90;;;;;;5057381;28;20399;-57
2022/07/30 01:54:22;;;;;;;8.25;5.53;;;14.80;99.90;;;;;;5057460;28;20602;-56
2022/07/30 01:56:52;;;;;;;5.70;5.13;;;14.80;99.90;;;;;;5040761;28;20087;-54
2022/07/30 01:59:22;;;;;;;10.65;4.85;;;14.90;99.90;;;;;;5056873;28;20051;-58
2022/07/30 02:01:49;;;;;;;5.25;4.40;;;14.80;99.90;;;;;;5056960;28;20736;-57
2022/07/30 02:04:17;;;;;;;7.95;5.05;;;14.90;99.90;;;;;;5056242;28;20471;-56
2022/07/30 02:06:59;;;;;;;4.97;4.47;;;14.90;99.90;;;;;;5057019;28;20044;-56
2022/07/30 02:09:35;;;;;;;5.53;4.70;;;14.90;99.90;;;;;;5073079;28;20495;-55
2022/07/30 02:12:29;;;;;;;9.23;5.30;;;14.90;99.90;;;;;;5063468;28;20083;-55
2022/07/30 02:15:03;;;;;;;6.93;4.30;;;14.90;99.90;;;;;;5053178;28;20045;-56
2022/07/30 02:17:42;;;;;;;6.07;4.68;;;14.90;99.90;;;;;;5055311;28;20064;-57
2022/07/30 02:20:13;;;;;;;12.57;5.22;;;14.90;99.90;;;;;;5053127;28;20040;-54
2022/07/30 02:22:44;;;;;;;14.75;5.97;;;14.90;99.90;;;;;;5053512;28;20041;-54
2022/07/30 02:25:17;;;;;;;6.25;5.35;;;14.90;99.90;;;;;;5053089;28;20037;-55
2022/07/30 02:27:49;;;;;;;7.07;5.20;;;14.80;99.90;;;;;;5055048;28;20036;-57
2022/07/30 02:30:16;;;;;;;8.65;5.72;;;14.80;99.90;;;;;;5055210;28;20849;-56
2022/07/30 02:32:47;;;;;;;7.68;4.80;;;14.70;99.90;;;;;;5051637;28;20052;-55
2022/07/30 02:35:20;;;;;;;6.07;4.68;;;14.70;99.90;;;;;;5063421;28;20644;-57
2022/07/30 02:37:49;;;;;;;6.20;4.72;;;14.70;99.90;;;;;;5055970;28;20081;-52
2022/07/30 02:40:19;;;;;;;6.95;4.63;;;14.70;99.90;;;;;;5074999;28;20119;-56
2022/07/30 02:42:50;;;;;;;7.30;5.38;;;14.70;99.90;;;;;;5066743;28;20033;-55
2022/07/30 02:45:22;;;;;;;7.35;4.95;;;14.60;99.90;;;;;;5053459;28;20059;-56
2022/07/30 02:48:00;;;;;;;5.47;4.97;;;14.60;99.90;;;;;;5051781;28;20048;-55
2022/07/30 02:50:28;;;;;;;6.85;5.10;;;14.60;99.90;;;;;;5056448;28;20048;-57
2022/07/30 02:52:58;;;;;;;7.47;5.38;;;14.60;99.90;;;;;;5056126;28;20052;-57
2022/07/30 02:55:27;;;;;;;7.35;5.57;;;14.50;99.90;;;;;;5074793;28;20043;-57
2022/07/30 02:57:55;;;;;;;6.70;4.80;;;14.50;99.90;;;;;;5039586;28;20159;-57
2022/07/30 03:00:24;;;;;;;5.93;5.13;;;14.50;99.90;;;;;;5055794;28;20048;-56
2022/07/30 03:02:53;;;;;;;9.18;4.47;;;14.40;99.90;;;;;;5055748;28;20911;-56
2022/07/30 03:05:23;;;;;;;6.13;5.35;;;14.50;99.90;;;;;;5074129;28;20048;-56
2022/07/30 03:07:55;;;;;;;6.20;4.65;;;14.40;99.90;;;;;;5073517;28;20051;-56
2022/07/30 03:10:23;;;;;;;6.78;5.05;;;14.40;99.90;;;;;;5043595;28;20245;-54
2022/07/30 03:12:51;;;;;;;7.40;5.30;;;14.40;99.90;;;;;;5069970;28;20043;-56
2022/07/30 03:15:18;;;;;;;8.02;5.45;;;14.40;99.90;;;;;;5053049;28;20146;-56
2022/07/30 03:17:49;;;;;;;8.98;4.47;;;14.30;99.90;;;;;;5055294;28;20036;-55
2022/07/30 03:20:19;;;;;;;11.30;5.30;;;14.30;99.90;;;;;;5054374;28;20048;-54
2022/07/30 03:22:51;;;;;;;7.25;5.07;;;14.30;99.90;;;;;;5054436;28;20086;-53
2022/07/30 03:25:27;;;;;;;5.47;4.75;;;14.30;99.90;;;;;;5053648;28;20086;-55
2022/07/30 03:27:56;;;;;;;11.98;5.35;;;14.30;99.90;;;;;;5053323;28;20049;-55
2022/07/30 03:30:25;;;;;;;10.68;4.80;;;14.30;99.90;;;;;;5053771;28;20044;-57
2022/07/30 03:32:54;;;;;;;8.27;4.55;;;14.30;99.90;;;;;;5035737;28;20059;-57
2022/07/30 03:35:23;;;;;;;11.65;4.68;;;14.30;99.90;;;;;;5053236;28;20151;-57
2022/07/30 03:37:54;;;;;;;10.90;4.82;;;14.30;99.90;;;;;;5036194;28;20041;-56
2022/07/30 03:40:22;;;;;;;9.27;4.57;;;14.30;99.90;;;;;;5053191;28;20037;-57
2022/07/30 03:42:49;;;;;;;6.50;4.05;;;14.30;99.90;;;;;;5061973;28;20044;-56
2022/07/30 03:45:20;;;;;;;7.57;4.80;;;14.30;99.90;;;;;;5072734;28;20226;-56
2022/07/30 03:47:49;;;;;;;7.43;5.25;;;14.30;99.90;;;;;;5072021;28;20055;-55
2022/07/30 03:50:17;;;;;;;6.25;4.22;;;14.30;99.90;;;;;;5055191;28;20135;-55
2022/07/30 03:52:45;;;;;;;5.50;4.15;;;14.30;99.90;;;;;;5057118;28;20060;-54
2022/07/30 03:55:16;;;;;;;9.68;4.65;;;14.30;99.90;;;;;;5055685;28;20058;-55
2022/07/30 03:57:49;;;;;;;5.03;3.95;;;14.30;99.90;;;;;;5074905;28;20141;-57
2022/07/30 04:00:19;;;;;;;8.23;4.10;;;14.40;99.90;;;;;;5055607;28;20106;-56
2022/07/30 04:02:50;;;;;;;3.95;3.50;;;14.40;99.90;;;;;;5056906;28;20058;-54
2022/07/30 04:05:17;;;;;;;;;;;14.40;99.90;;;;;;5074999;28;20384;-54
2022/07/30 04:07:45;;;;;;;;;;;14.40;99.90;;;;;;5056723;28;19935;-53
2022/07/30 04:10:15;;;;;;;10.15;5.25;;;14.50;99.90;;;;;;5052630;28;19924;-55
2022/07/30 04:12:57;;;;;;;5.45;4.38;;;14.50;99.90;;;;;;5053456;28;20047;-56
2022/07/30 04:15:24;;;;;;;6.88;3.70;;;14.50;99.90;;;;;;5054070;28;20036;-55
2022/07/30 04:18:14;;;;;;;4.20;3.75;;;14.50;99.90;;;;;;5022149;28;20178;-56
2022/07/30 04:20:43;;;;;;;7.13;4.18;;;14.50;99.90;;;;;;5052815;28;20032;-54
2022/07/30 04:23:11;;;;;;;8.30;4.22;;;14.60;99.90;;;;;;5035092;28;20053;-56
2022/07/30 04:25:42;;;;;;;6.10;4.03;;;14.60;99.90;;;;;;5036249;28;20150;-53
2022/07/30 04:28:10;;;;;;;6.90;4.47;;;14.60;99.90;;;;;;5052543;28;20049;-56
2022/07/30 04:30:37;;;;;;;6.03;4.22;;;14.70;99.90;;;;;;5054184;28;20047;-54
2022/07/30 04:33:04;;;;;;;6.10;4.85;;;14.70;99.90;;;;;;5051982;28;20058;-56
2022/07/30 04:35:50;;;;;;;4.65;4.13;;;14.70;99.90;;;;;;5052676;28;20138;-56
2022/07/30 04:38:35;;;;;;;8.65;4.57;;;14.70;99.90;;;;;;5052317;28;20048;-56
2022/07/30 04:41:02;;;;;;;7.18;3.95;;;14.70;99.90;;;;;;5051901;28;20738;-57
2022/07/30 04:43:45;;;;;;;10.57;4.40;;;14.70;99.90;;;;;;5066687;28;20036;-55
2022/07/30 04:46:12;;;;;;;;;;;14.70;99.90;;;;;;5073050;28;20050;-55
2022/07/30 04:48:39;;;;;;;9.35;3.88;;;14.60;99.90;;;;;;5054794;28;19924;-57
2022/07/30 04:51:21;;;;;;;7.05;4.22;;;14.60;99.90;;;;;;5070493;28;20566;-57
2022/07/30 04:53:52;;;;;;;5.93;3.97;;;14.60;99.90;;;;;;5073803;28;20068;-55
2022/07/30 04:56:20;;;;;;;6.78;4.05;;;14.60;99.90;;;;;;5054472;28;20055;-57
2022/07/30 04:58:50;;;;;;;7.28;3.85;;;14.60;99.90;;;;;;5054932;28;20046;-56
2022/07/30 05:01:22;;;;;;;5.63;4.20;;;14.50;99.90;;;;;;5054715;28;20068;-55
2022/07/30 05:04:03;;;;;;;6.25;4.57;;;14.50;99.90;;;;;;5055893;28;20101;-54
2022/07/30 05:06:31;;;;;;;7.15;3.47;;;14.60;99.90;;;;;;5055205;28;20144;-56
2022/07/30 05:08:58;;;;;;;8.27;3.63;;;14.60;99.90;;;;;;5037849;28;20085;-52
2022/07/30 05:11:25;;;;;;;3.53;3.22;;;14.60;99.90;;;;;;5039761;28;20044;-55
2022/07/30 05:13:53;;;;;;;4.63;4.10;;;14.70;99.90;;;;;;5051472;28;20053;-52
2022/07/30 05:16:21;;;;;;;5.70;4.25;;;14.70;99.90;;;;;;5051527;28;20040;-53
2022/07/30 05:18:49;;;;;;;7.45;3.97;;;14.80;99.90;;;;;;5018040;28;20152;-52
2022/07/30 05:21:16;;;;;;;8.82;4.05;;;14.90;99.90;;;;;;5053439;28;20118;-51
2022/07/30 05:23:46;;;;;;;5.45;3.88;;;14.90;99.90;;;;;;5034633;28;20056;-53
2022/07/30 05:26:31;;;;;;;10.95;4.10;;;15.00;99.90;;;;;;5035681;28;20079;-50
2022/07/30 05:28:58;;;;;;;5.45;4.63;;;15.10;99.90;;;;;;5018972;28;20041;-54
2022/07/30 05:31:37;;;;;;;4.28;3.80;;;15.10;99.90;;;;;;5034676;28;20056;-54
2022/07/30 05:34:05;;;;;;;4.65;4.25;;;15.20;99.90;;;;;;5051552;28;20143;-52
2022/07/30 05:36:39;;;;;;;5.68;4.10;;;15.20;99.90;;;;;;5060086;28;20048;-52
2022/07/30 05:39:07;;;;;;;5.35;3.97;;;15.30;99.90;;;;;;5054813;28;20067;-53
2022/07/30 05:41:54;;;;;;;3.67;3.38;;;15.40;99.90;;;;;;5071582;28;20151;-53
2022/07/30 05:44:25;;;;;;;4.65;3.60;;;15.50;99.90;;;;;;5052733;28;20051;-53
2022/07/30 05:46:52;;;;;;;;;;;15.50;99.90;;;;;;5052428;28;20048;-57
2022/07/30 05:49:19;;;;;;;5.28;4.05;;;15.60;99.90;;;;;;5059595;28;19930;-52
2022/07/30 05:51:46;;;;;;;4.35;3.92;;;15.60;99.90;;;;;;5033470;28;20071;-52
2022/07/30 05:54:12;;;;;;;4.80;4.05;;;15.70;99.90;;;;;;5051625;28;20040;-52
2022/07/30 05:57:03;;;;;;;4.55;3.85;;;15.80;99.90;;;;;;5023810;28;20068;-52
2022/07/30 05:59:37;;;;;;;5.45;4.55;;;15.90;99.90;;;;;;5035413;28;20044;-52
2022/07/30 06:02:07;;;;;;;7.43;4.45;;;16.00;99.90;;;;;;5035745;28;20131;-53
2022/07/30 06:04:48;;;;;;;4.07;3.67;;;16.00;99.90;;;;;;5050987;28;20832;-51
2022/07/30 06:07:16;;;;;;;4.85;3.80;;;16.10;99.90;;;;;;5035387;28;20049;-53
2022/07/30 06:09:42;;;;;;;;;;;16.10;99.90;;;;;;5063044;28;20059;-52
2022/07/30 06:12:10;;;;;;;6.20;4.00;;;16.20;99.90;;;;;;5075207;28;19930;-52
2022/07/30 06:14:37;;;;;;;4.40;4.00;;;16.30;99.90;;;;;;5041605;28;20143;-50
2022/07/30 06:17:05;;;;;;;4.25;3.60;;;16.30;99.90;;;;;;5054712;28;20552;-52
2022/07/30 06:19:59;;;;;;;4.25;3.78;;;16.40;99.90;;;;;;5053239;28;20744;-52
2022/07/30 06:22:29;;;;;;;6.35;4.07;;;16.50;99.90;;;;;;5054641;28;20068;-53
2022/07/30 06:25:01;;;;;;;4.95;4.07;;;16.50;99.90;;;;;;5054900;28;20648;-53
2022/07/30 06:27:29;;;;;;;4.72;3.83;;;16.60;99.90;;;;;;5054339;28;20140;-52
2022/07/30 06:30:00;;;;;;;3.67;3.13;;;16.70;99.90;;;;;;5053870;28;20260;-52
2022/07/30 06:32:27;;;;;;;3.58;3.28;;;16.80;99.90;;;;;;5054152;28;20047;-55
2022/07/30 06:34:54;;;;;;;4.88;3.92;;;16.90;99.90;;;;;;5054292;28;20694;-53
2022/07/30 06:37:30;;;;;;;4.57;3.83;;;17.00;99.90;;;;;;5052759;28;20099;-53
2022/07/30 06:40:18;;;;;;;4.72;3.55;;;17.10;99.90;;;;;;5037835;28;20044;-53
2022/07/30 06:43:11;;;;;;;6.18;3.97;;;17.10;99.90;;;;;;5058509;28;20056;-55
2022/07/30 06:45:57;;;;;;;4.03;3.50;;;17.30;99.90;;;;;;5077562;28;20050;-53
2022/07/30 06:48:31;;;;;;;4.55;3.50;;;17.40;99.90;;;;;;5095595;28;20053;-53
2022/07/30 06:51:00;;;;;;;6.45;4.35;;;17.50;99.90;;;;;;5045788;28;20059;-53
2022/07/30 06:53:28;;;;;;;5.10;4.07;;;17.70;99.90;;;;;;5055950;28;20054;-54
2022/07/30 06:56:18;;;;;;;4.63;4.22;;;17.80;99.90;;;;;;5075295;28;20087;-54
2022/07/30 06:58:53;;;;;;;8.05;3.83;;;17.90;99.90;;;;;;5056987;28;20063;-53
2022/07/30 07:01:38;;;;;;;5.82;3.22;;;18.10;99.90;;;;;;5068467;28;20055;-53
2022/07/30 07:04:06;;;;;;;6.05;3.70;;;18.20;99.90;;;;;;5052903;28;20060;-56
2022/07/30 07:06:34;;;;;;;3.75;3.08;;;18.30;99.90;;;;;;5052609;28;20029;-56
2022/07/30 07:09:01;;;;;;;7.20;3.47;;;18.40;99.90;;;;;;5053607;28;20486;-54
2022/07/30 07:11:41;;;;;;;6.53;3.20;;;18.50;99.90;;;;;;5039249;28;20420;-55
2022/07/30 07:14:11;;;;;;;4.05;3.05;;;18.50;99.90;;;;;;5047888;28;20060;-54
2022/07/30 07:16:37;;;;;;;5.72;3.28;;;18.50;99.90;;;;;;5056183;28;20062;-55
2022/07/30 07:19:24;;;;;;;3.55;3.00;;;18.60;99.90;;;;;;5074008;28;20045;-53
2022/07/30 07:22:11;;;;;;;5.07;3.30;;;18.60;99.90;;;;;;5052752;28;20045;-54
2022/07/30 07:24:39;;;;;;;10.02;3.40;;;18.70;99.90;;;;;;5035826;28;20125;-54
2022/07/30 07:27:10;;;;;;;3.95;3.25;;;18.80;99.90;;;;;;5036336;28;20048;-53
2022/07/30 07:29:43;;;;;;;4.50;3.10;;;18.80;99.90;;;;;;5036387;28;21052;-53
2022/07/30 07:32:30;;;;;;;4.90;3.50;;;18.90;99.90;;;;;;5036404;28;20468;-54
2022/07/30 07:34:57;;;;;;;5.65;2.90;;;19.00;99.90;;;;;;5052310;28;20048;-54
2022/07/30 07:37:27;;;;;;;7.05;3.35;;;19.00;99.90;;;;;;5051976;28;20049;-54
2022/07/30 07:39:54;;;;;;;4.47;3.40;;;19.10;99.90;;;;;;5040081;28;20750;-54
2022/07/30 07:42:21;;;;;;;4.93;3.22;;;19.10;99.90;;;;;;5068239;28;20048;-55
2022/07/30 07:44:49;;;;;;;10.70;3.65;;;19.10;99.90;;;;;;5055316;28;20047;-55
2022/07/30 07:47:17;;;;;;;10.40;3.50;;;19.20;99.90;;;;;;5051553;28;20063;-55
2022/07/30 07:49:57;;;;;;;7.28;3.85;;;19.20;99.90;;;;;;5052545;28;20047;-56
2022/07/30 07:52:24;;;;;;;4.55;3.20;;;19.30;99.90;;;;;;5050582;28;20044;-55
2022/07/30 07:54:51;;;;;;;7.95;3.55;;;19.40;99.90;;;;;;5036346;28;20090;-55
2022/07/30 07:57:18;;;;;;;7.10;3.80;;;19.40;99.90;;;;;;5053557;28;20755;-54
2022/07/30 07:59:46;;;;;;;4.18;3.30;;;19.40;99.90;;;;;;5053949;28;20044;-54
2022/07/30 08:02:22;;;;;;;12.68;4.32;;;19.40;99.90;;;;;;5035947;28;20045;-55
2022/07/30 08:04:57;;;;;;;8.45;3.97;;;19.50;99.90;;;;;;5035023;28;20046;-54
2022/07/30 08:07:44;;;;;;;7.95;3.47;;;19.50;99.90;;;;;;5035683;28;20131;-55
2022/07/30 08:10:49;;;;;;;8.40;4.13;;;19.60;99.90;;;;;;5067792;28;20182;-55
2022/07/30 08:13:42;;;;;;;8.70;4.07;;;19.80;99.90;;;;;;5038692;28;20060;-55
2022/07/30 08:16:36;;;;;;;3.88;3.17;;;20.00;99.90;;;;;;5053597;28;20520;-63
2022/07/30 08:19:23;;;;;;;8.65;3.88;;;20.10;99.90;;;;;;5035862;28;20913;-55
2022/07/30 08:22:09;;;;;;;5.35;4.85;;;20.50;99.90;;;;;;5038419;28;20048;-56
2022/07/30 08:24:36;;;;;;;9.85;4.60;;;21.00;99.90;;;;;;5051199;28;20041;-54
2022/07/30 08:27:03;;;;;;;9.52;4.50;;;21.50;99.90;;;;;;5052992;28;20106;-55
2022/07/30 08:29:30;;;;;;;11.82;5.00;;;21.80;99.90;;;;;;5035590;28;20110;-55
2022/07/30 08:31:57;;;;;;;10.98;4.75;;;22.10;99.90;;;;;;5034665;28;20707;-56
2022/07/30 08:34:26;;;;;;;5.45;4.07;;;22.40;99.90;;;;;;5034711;28;20036;-55
2022/07/30 08:36:55;;;;;;;10.73;4.25;;;22.60;99.90;;;;;;5018809;28;20048;-55
2022/07/30 08:39:22;;;;;;;9.43;4.20;;;22.80;99.90;;;;;;5050245;28;20045;-58
2022/07/30 08:41:49;;;;;;;3.90;3.45;;;22.80;99.10;;;;;;5051892;28;20044;-55
2022/07/30 08:44:18;;;;;;;6.43;4.05;;;22.80;99.90;;;;;;5070644;28;20906;-56
2022/07/30 08:46:54;;;;;;;8.23;3.42;;;22.90;99.90;;;;;;5071688;28;20044;-56
2022/07/30 08:49:27;;;;;;;8.75;4.10;;;23.30;99.90;;;;;;5071082;28;20576;-55
2022/07/30 08:51:55;;;;;;;8.88;4.88;;;23.60;99.90;;;;;;5071091;28;20047;-53
2022/07/30 08:54:39;;;;;;;5.82;2.85;;;24.00;99.90;;;;;;5049869;28;20044;-53
2022/07/30 08:57:06;;;;;;;6.20;2.42;;;24.20;73.30;;;;;;5052746;28;20690;-53
2022/07/30 08:59:37;;;;;;;5.72;2.75;;;24.40;75.10;;;;;;5034247;28;20540;-54
2022/07/30 09:02:26;;;;;;;5.45;2.85;;;24.60;78.50;;;;;;5034924;28;20051;-55
2022/07/30 09:05:01;;;;;;;8.05;3.55;;;24.80;71.60;;;;;;5019246;28;20072;-59
2022/07/30 09:07:30;;;;;;;6.65;2.60;;;25.00;66.10;;;;;;5051143;28;20122;-62
2022/07/30 09:09:57;;;;;;;9.77;2.47;;;25.10;66.90;;;;;;5060132;28;20052;-65
2022/07/30 09:12:36;;;;;;;4.03;2.40;;;25.20;61.80;;;;;;5052507;28;20052;-64
2022/07/30 09:15:18;;;;;;;7.05;3.08;;;25.20;65.30;;;;;;5066477;28;20048;-65
2022/07/30 09:17:56;;;;;;;6.50;2.20;;;25.30;63.70;;;;;;5034603;28;20045;-64
2022/07/30 09:20:28;;;;;;;3.90;1.98;;;25.40;60.80;;;;;;5053471;28;20732;-65
2022/07/30 09:23:04;;;;;;;7.95;3.45;;;25.50;63.80;;;;;;5034226;28;20048;-65
2022/07/30 09:25:55;;;;;;;13.25;3.20;;;25.50;62.10;;;;;;5014641;28;20544;-65
2022/07/30 09:28:41;;;;;;;;;;;25.30;61.10;;;;;;5052420;28;20483;-65
2022/07/30 09:31:15;;;;;;;5.03;2.58;;;25.20;65.50;;;;;;5051900;28;20009;-65
2022/07/30 09:34:01;;;;;;;5.75;2.50;;;25.30;64.20;;;;;;5052274;28;20182;-65
2022/07/30 09:37:16;;;;;;;6.70;2.92;;;25.50;67.20;;;;;;5052393;28;20467;-64
2022/07/30 09:40:14;;;;;;;6.50;2.40;;;25.70;61.90;;;;;;5036792;28;20056;-65
2022/07/30 09:43:11;;;;;;;;;;;25.80;60.00;;;;;;5008789;28;20711;-64
2022/07/30 09:45:57;;;;;;;5.38;2.75;;;25.90;63.10;;;;;;5038139;28;19920;-65
2022/07/30 09:48:26;;;;;;;3.10;2.45;;;26.10;62.70;;;;;;5038066;28;20055;-66
2022/07/30 09:50:54;;;;;;;7.28;2.70;;;26.40;59.60;;;;;;5038271;28;20094;-65
2022/07/30 09:53:23;;;;;;;4.05;2.63;;;26.50;59.10;;;;;;5041682;28;20202;-66
2022/07/30 09:55:51;;;;;;;5.35;2.60;;;26.50;57.10;;;;;;5057153;28;20617;-65
2022/07/30 09:58:18;;;;;;;7.90;3.55;;;26.20;56.90;;;;;;5057372;28;20793;-64
2022/07/30 10:00:57;;;;;;;3.63;2.70;;;25.70;59.80;;;;;;5058007;28;20044;-66
2022/07/30 10:03:52;;;;;;;4.68;2.92;;;25.30;64.50;;;;;;5068988;28;20051;-64
2022/07/30 10:06:35;;;;;;;7.78;3.55;;;25.20;74.50;;;;;;5076575;28;20051;-66
2022/07/30 10:09:44;;;;;;;3.72;2.63;;;25.40;76.20;;;;;;5059579;28;20154;-66
2022/07/30 10:12:14;;;;;;;3.38;2.70;;;25.70;75.20;;;;;;5048558;28;20643;-66
2022/07/30 10:14:48;;;;;;;5.80;3.47;;;26.00;73.90;;;;;;5040822;28;20051;-66
2022/07/30 10:17:19;;;;;;;6.60;2.30;;;26.30;72.70;;;;;;5054200;28;20044;-65
2022/07/30 10:20:23;;;;;;;5.50;2.50;;;26.50;71.10;;;;;;5043435;28;20055;-65
2022/07/30 10:23:28;;;;;;;4.45;2.50;;;26.50;56.40;;;;;;4993197;28;20061;-66
2022/07/30 10:26:17;;;;;;;4.55;2.42;;;26.10;57.20;;;;;;5052435;28;20126;-65
2022/07/30 10:29:11;;;;;;;5.38;2.88;;;26.10;60.50;;;;;;5038083;28;20317;-65
2022/07/30 10:31:41;;;;;;;2.40;2.10;;;26.10;57.70;;;;;;5055430;28;20052;-65
2022/07/30 10:34:17;;;;;;;2.70;2.20;;;26.20;56.70;;;;;;5053913;28;20068;-66
2022/07/30 10:36:54;;;;;;;3.38;2.22;;;26.40;59.00;;;;;;5055996;28;20892;-66
2022/07/30 10:39:37;;;;;;;4.60;1.98;;;26.50;58.70;;;;;;5071061;28;20144;-66
2022/07/30 10:42:36;;;;;;;3.65;2.28;;;26.30;58.00;;;;;;5071199;28;20051;-65
2022/07/30 10:45:22;;;;;;;2.13;1.92;;;26.10;56.90;;;;;;5038008;28;20102;-65
2022/07/30 10:47:50;;;;;;;3.53;1.75;;;25.90;57.80;;;;;;5054993;28;20273;-66
2022/07/30 10:50:21;;;;;;;6.95;2.20;;;26.00;58.50;;;;;;5054447;28;20063;-66
2022/07/30 10:52:51;;;;;;;4.15;2.35;;;26.10;58.10;;;;;;5054800;28;20052;-66
2022/07/30 10:55:24;;;;;;;6.75;2.20;;;26.30;57.30;;;;;;5049393;28;20075;-67
2022/07/30 10:58:09;;;;;;;7.68;2.42;;;26.60;59.80;;;;;;5038698;28;20582;-67
2022/07/30 11:00:52;;;;;;;5.30;2.33;;;26.90;56.30;;;;;;5054273;28;20045;-66
2022/07/30 11:03:22;;;;;;;3.67;1.90;;;26.90;55.70;;;;;;5036951;28;20032;-66
2022/07/30 11:05:51;;;;;;;2.92;1.73;;;26.70;56.10;;;;;;5037283;28;20045;-66
2022/07/30 11:08:49;;;;;;;9.38;2.58;;;26.40;56.50;;;;;;5054608;28;20067;-66
2022/07/30 11:11:19;;;;;;;3.72;2.22;;;26.10;58.20;;;;;;5047408;28;20048;-66
2022/07/30 11:14:06;;;;;;;5.05;2.42;;;25.90;57.60;;;;;;5052480;28;20044;-65
2022/07/30 11:16:33;;;;;;;3.17;2.55;;;25.80;57.10;;;;;;5053380;28;20033;-66
2022/07/30 11:19:15;;;;;;;7.20;2.15;;;25.70;56.90;;;;;;5054071;28;20255;-65
2022/07/30 11:22:27;;;;;;;4.68;2.25;;;25.70;55.40;;;;;;5039592;28;20059;-66
2022/07/30 11:24:55;;;;;;;11.20;2.55;;;25.60;57.80;;;;;;5053861;28;20043;-66
2022/07/30 11:27:47;;;;;;;10.40;2.88;;;25.70;57.60;;;;;;5055019;28;20226;-66
2022/07/30 11:30:14;;;;;;;6.50;2.42;;;25.70;56.30;;;;;;5053496;28;20052;-66
2022/07/30 11:32:44;;;;;;;5.53;2.42;;;25.60;57.30;;;;;;5053843;28;20044;-66
2022/07/30 11:35:28;;;;;;;5.45;2.28;;;25.40;58.50;;;;;;5053992;28;20040;-65
2022/07/30 11:38:05;;;;;;;9.10;2.60;;;25.40;60.10;;;;;;5059863;28;20383;-65
2022/07/30 11:40:38;;;;;;;6.07;2.38;;;25.50;59.60;;;;;;5054501;28;20584;-67
2022/07/30 11:43:35;;;;;;;4.13;2.25;;;25.70;59.00;;;;;;5063066;28;20063;-66
2022/07/30 11:46:07;;;;;;;7.00;2.00;;;25.70;57.90;;;;;;5053592;28;20051;-66
2022/07/30 11:48:39;;;;;;;2.97;1.92;;;25.60;55.20;;;;;;5052429;28;20167;-65
2022/07/30 11:51:06;;;;;;;2.38;1.90;;;25.50;56.60;;;;;;5052642;28;20045;-66
2022/07/30 11:53:33;;;;;;;3.70;1.60;;;25.40;57.30;;;;;;5053339;28;20041;-65
2022/07/30 11:56:02;;;;;;;3.58;1.88;;;25.40;57.30;;;;;;5070356;28;20790;-68
2022/07/30 11:58:34;;;;;;;4.85;2.00;;;25.30;59.00;;;;;;5073155;28;20051;-69
2022/07/30 12:01:12;;;;;;;2.10;1.50;;;25.20;55.90;;;;;;5074412;28;20047;-67
2022/07/30 12:03:41;;;;;;;4.68;1.60;;;25.00;56.90;;;;;;5073224;28;20040;-67
2022/07/30 12:06:12;;;;;;;2.17;1.60;;;24.70;58.20;;;;;;5073832;28;20101;-66
2022/07/30 12:08:43;;;;;;;2.03;1.63;;;24.30;60.40;;;;;;5073774;28;20514;-66
2022/07/30 12:11:10;;;;;;;2.22;1.67;;;23.90;62.80;;;;;;5054493;28;20043;-65
2022/07/30 12:13:38;;;;;;;3.78;1.70;;;23.60;67.90;;;;;;5053060;28;20125;-65
2022/07/30 12:16:15;;;;;;;;;;;23.30;68.00;;;;;;5053989;28;20672;-66
2022/07/30 12:18:43;;;;;;;6.90;2.00;;;23.00;74.40;;;;;;5053379;28;20578;-65
2022/07/30 12:21:11;;;;;;;4.38;1.70;;;22.70;90.60;;;;;;5053274;28;20040;-66
2022/07/30 12:23:40;;;;;;;5.82;1.42;;;22.50;94.50;;;;;;5053251;28;20834;-64
2022/07/30 12:26:08;;;;;;;2.80;1.40;;;22.40;96.70;;;;;;5035585;28;20098;-66
2022/07/30 12:28:35;;;;;;;2.15;1.50;;;22.40;96.60;;;;;;5052444;28;20086;-65
2022/07/30 12:31:03;;;;;;;2.08;1.67;;;22.60;99.90;;;;;;5053720;28;20052;-65
2022/07/30 12:33:30;;;;;;;3.58;1.20;;;22.70;99.90;;;;;;5052682;28;20040;-67
2022/07/30 12:35:59;;;;;;;1.67;1.10;;;22.80;96.70;;;;;;5053376;28;20739;-68
2022/07/30 12:38:27;;;;;;;1.13;1.00;;;22.80;93.30;;;;;;5061746;28;20048;-68
2022/07/30 12:41:04;;;;;;;2.10;1.02;;;22.80;92.20;;;;;;5057850;28;20469;-66
2022/07/30 12:43:49;;;;;;;1.60;1.00;;;22.70;93.80;;;;;;5066337;28;20040;-68
2022/07/30 12:46:21;;;;;;;4.00;0.90;;;22.70;97.70;;;;;;5073827;28;20048;-66
2022/07/30 12:48:56;;;;;;;1.75;1.20;;;22.60;99.90;;;;;;5071562;28;20040;-66
2022/07/30 12:51:49;;;;;;;1.25;1.15;;;22.40;99.90;;;;;;5072763;28;20163;-66
2022/07/30 12:54:18;;;;;;;1.58;1.02;;;22.20;99.90;;;;;;5072986;28;20094;-65
2022/07/30 12:56:59;;;;;;;3.30;1.40;;;22.00;99.90;;;;;;5071603;28;20047;-66
2022/07/30 12:59:28;;;;;;;7.07;1.50;;;21.80;99.90;;;;;;5071729;28;20764;-66
2022/07/30 13:01:58;;;;;;;2.30;1.38;;;21.70;99.90;;;;;;5072595;28;20116;-66
2022/07/30 13:04:26;;;;;;;2.88;1.45;;;21.60;99.90;;;;;;5072888;28;20039;-66
2022/07/30 13:07:05;;;;;;;3.40;2.10;;;21.60;99.90;;;;;;5073198;28;20085;-66
2022/07/30 13:09:32;;;;;;;2.35;1.75;;;21.70;99.90;;;;;;5072504;28;20047;-65
2022/07/30 13:11:59;;;;;;;6.93;2.17;;;21.80;99.90;;;;;;5071943;28;20036;-67
2022/07/30 13:14:26;;;;;;;2.17;1.90;;;21.90;99.90;;;;;;5057930;28;20059;-66
2022/07/30 13:16:57;;;;;;;2.42;2.08;;;22.00;99.90;;;;;;5052466;28;20044;-66
2022/07/30 13:19:25;;;;;;;5.43;2.38;;;22.00;99.90;;;;;;5052587;28;20104;-66
2022/07/30 13:21:52;;;;;;;6.38;1.83;;;22.30;99.90;;;;;;5051374;28;20147;-66
2022/07/30 13:24:20;;;;;;;3.15;2.30;;;22.50;99.90;;;;;;5051525;28;20040;-65